sensor_id;sensor_type;location;lat;lon;timestamp;pressure;altitude;pressure_sealevel;temperature
74449;BMP280;62878;51.026;4.472;2023-01-05T00:01:32;-6006.97;;;18.39
74449;BMP280;62878;51.026;4.472;2023-01-05T00:03:57;-6005.28;;;18.29
74449;BMP280;62878;51.026;4.472;2023-01-05T00:06:23;-6005.38;;;18.30
74449;BMP280;62878;51.026;4.472;2023-01-05T00:08:48;-6004.78;;;18.26
74449;BMP280;62878;51.026;4.472;2023-01-05T00:11:16;-6005.81;;;18.32
74449;BMP280;62878;51.026;4.472;2023-01-05T00:14:01;-6002.00;;;18.10
74449;BMP280;62878;51.026;4.472;2023-01-05T00:16:45;-6004.13;;;18.22
74449;BMP280;62878;51.026;4.472;2023-01-05T00:19:47;-6004.44;;;18.24
74449;BMP280;62878;51.026;4.472;2023-01-05T00:22:32;-6009.25;;;18.53
74449;BMP280;62878;51.026;4.472;2023-01-05T00:25:09;-6008.66;;;18.50
74449;BMP280;62878;51.026;4.472;2023-01-05T00:27:35;-6006.72;;;18.38
74449;BMP280;62878;51.026;4.472;2023-01-05T00:30:00;-6007.47;;;18.42
74449;BMP280;62878;51.026;4.472;2023-01-05T00:32:26;-6007.47;;;18.42
74449;BMP280;62878;51.026;4.472;2023-01-05T00:34:56;-6007.31;;;18.41
74449;BMP280;62878;51.026;4.472;2023-01-05T00:37:23;-6004.63;;;18.25
74449;BMP280;62878;51.026;4.472;2023-01-05T00:39:48;-6005.72;;;18.32
74449;BMP280;62878;51.026;4.472;2023-01-05T00:42:14;-6006.38;;;18.36
74449;BMP280;62878;51.026;4.472;2023-01-05T00:44:39;-6007.47;;;18.42
74449;BMP280;62878;51.026;4.472;2023-01-05T00:47:04;-6007.16;;;18.40
74449;BMP280;62878;51.026;4.472;2023-01-05T00:49:30;-6006.47;;;18.36
74449;BMP280;62878;51.026;4.472;2023-01-05T00:51:55;-6006.31;;;18.35
74449;BMP280;62878;51.026;4.472;2023-01-05T00:54:20;-6002.78;;;18.14
74449;BMP280;62878;51.026;4.472;2023-01-05T00:56:46;-6000.75;;;18.02
74449;BMP280;62878;51.026;4.472;2023-01-05T00:59:14;-6003.78;;;18.20
74449;BMP280;62878;51.026;4.472;2023-01-05T01:01:39;-6005.28;;;18.29
74449;BMP280;62878;51.026;4.472;2023-01-05T01:04:04;-6001.50;;;18.07
74449;BMP280;62878;51.026;4.472;2023-01-05T01:06:29;-6005.63;;;18.31
74449;BMP280;62878;51.026;4.472;2023-01-05T01:08:55;-6002.44;;;18.12
74449;BMP280;62878;51.026;4.472;2023-01-05T01:11:20;-6004.97;;;18.27
74449;BMP280;62878;51.026;4.472;2023-01-05T01:13:45;-6003.94;;;18.21
74449;BMP280;62878;51.026;4.472;2023-01-05T01:16:13;-5997.22;;;17.81
74449;BMP280;62878;51.026;4.472;2023-01-05T01:18:39;-6004.97;;;18.27
74449;BMP280;62878;51.026;4.472;2023-01-05T01:21:06;-6006.31;;;18.35
74449;BMP280;62878;51.026;4.472;2023-01-05T01:23:32;-6004.28;;;18.23
74449;BMP280;62878;51.026;4.472;2023-01-05T01:26:10;-6005.63;;;18.31
74449;BMP280;62878;51.026;4.472;2023-01-05T01:28:36;-5999.41;;;17.94
74449;BMP280;62878;51.026;4.472;2023-01-05T01:31:01;-6001.94;;;18.09
74449;BMP280;62878;51.026;4.472;2023-01-05T01:33:27;-6001.50;;;18.07
74449;BMP280;62878;51.026;4.472;2023-01-05T01:35:52;-6001.75;;;18.08
74449;BMP280;62878;51.026;4.472;2023-01-05T01:38:18;-6002.34;;;18.12
74449;BMP280;62878;51.026;4.472;2023-01-05T01:40:45;-6002.09;;;18.10
74449;BMP280;62878;51.026;4.472;2023-01-05T01:43:38;-6004.63;;;18.25
74449;BMP280;62878;51.026;4.472;2023-01-05T01:46:06;-6002.59;;;18.13
74449;BMP280;62878;51.026;4.472;2023-01-05T01:48:33;-6001.16;;;18.05
74449;BMP280;62878;51.026;4.472;2023-01-05T01:51:02;-6003.53;;;18.19
74449;BMP280;62878;51.026;4.472;2023-01-05T01:53:34;-6001.34;;;18.06
74449;BMP280;62878;51.026;4.472;2023-01-05T01:56:02;-5999.31;;;17.93
74449;BMP280;62878;51.026;4.472;2023-01-05T01:58:30;-5997.56;;;17.83
74449;BMP280;62878;51.026;4.472;2023-01-05T02:00:57;-5996.72;;;17.78
74449;BMP280;62878;51.026;4.472;2023-01-05T02:03:26;-5996.03;;;17.74
74449;BMP280;62878;51.026;4.472;2023-01-05T02:05:52;-5996.22;;;17.75
74449;BMP280;62878;51.026;4.472;2023-01-05T02:08:17;-5992.19;;;17.51
74449;BMP280;62878;51.026;4.472;2023-01-05T02:17:10;-5997.38;;;17.82
74449;BMP280;62878;51.026;4.472;2023-01-05T02:25:33;-5996.97;;;17.79
74449;BMP280;62878;51.026;4.472;2023-01-05T02:28:32;-5995.72;;;17.72
74449;BMP280;62878;51.026;4.472;2023-01-05T02:31:12;-5996.38;;;17.76
74449;BMP280;62878;51.026;4.472;2023-01-05T02:33:43;-5996.97;;;17.79
74449;BMP280;62878;51.026;4.472;2023-01-05T02:36:26;-5996.03;;;17.74
74449;BMP280;62878;51.026;4.472;2023-01-05T02:39:00;-5999.16;;;17.92
74449;BMP280;62878;51.026;4.472;2023-01-05T02:41:43;-5998.41;;;17.88
74449;BMP280;62878;51.026;4.472;2023-01-05T02:44:15;-5996.72;;;17.78
74449;BMP280;62878;51.026;4.472;2023-01-05T02:46:40;-5999.56;;;17.95
74449;BMP280;62878;51.026;4.472;2023-01-05T02:49:06;-5999.25;;;17.93
74449;BMP280;62878;51.026;4.472;2023-01-05T02:51:45;-5997.06;;;17.80
74449;BMP280;62878;51.026;4.472;2023-01-05T02:54:35;-5997.72;;;17.84
74449;BMP280;62878;51.026;4.472;2023-01-05T02:57:17;-5994.19;;;17.63
74449;BMP280;62878;51.026;4.472;2023-01-05T02:59:48;-5997.81;;;17.84
74449;BMP280;62878;51.026;4.472;2023-01-05T03:02:21;-5996.72;;;17.78
74449;BMP280;62878;51.026;4.472;2023-01-05T03:05:00;-5992.69;;;17.54
74449;BMP280;62878;51.026;4.472;2023-01-05T03:07:34;-5998.31;;;17.87
74449;BMP280;62878;51.026;4.472;2023-01-05T03:10:03;-5998.06;;;17.86
74449;BMP280;62878;51.026;4.472;2023-01-05T03:12:51;-5997.63;;;17.83
74449;BMP280;62878;51.026;4.472;2023-01-05T03:15:38;-5997.31;;;17.81
74449;BMP280;62878;51.026;4.472;2023-01-05T03:18:07;-5994.03;;;17.62
74449;BMP280;62878;51.026;4.472;2023-01-05T03:20:35;-5997.91;;;17.85
74449;BMP280;62878;51.026;4.472;2023-01-05T03:23:05;-5997.56;;;17.83
74449;BMP280;62878;51.026;4.472;2023-01-05T03:25:51;-5996.22;;;17.75
74449;BMP280;62878;51.026;4.472;2023-01-05T03:28:41;-5993.53;;;17.59
74449;BMP280;62878;51.026;4.472;2023-01-05T03:34:19;-5995.38;;;17.70
74449;BMP280;62878;51.026;4.472;2023-01-05T03:37:32;-5995.53;;;17.71
74449;BMP280;62878;51.026;4.472;2023-01-05T03:39:59;-5996.97;;;17.79
74449;BMP280;62878;51.026;4.472;2023-01-05T03:42:28;-5995.97;;;17.73
74449;BMP280;62878;51.026;4.472;2023-01-05T03:44:54;-5996.38;;;17.76
74449;BMP280;62878;51.026;4.472;2023-01-05T03:47:19;-5996.38;;;17.76
74449;BMP280;62878;51.026;4.472;2023-01-05T03:49:44;-5996.03;;;17.74
74449;BMP280;62878;51.026;4.472;2023-01-05T03:52:10;-5995.88;;;17.73
74449;BMP280;62878;51.026;4.472;2023-01-05T03:54:35;-5995.28;;;17.69
74449;BMP280;62878;51.026;4.472;2023-01-05T03:57:00;-5996.28;;;17.75
74449;BMP280;62878;51.026;4.472;2023-01-05T03:59:26;-5996.03;;;17.74
74449;BMP280;62878;51.026;4.472;2023-01-05T04:01:51;-5995.38;;;17.70
74449;BMP280;62878;51.026;4.472;2023-01-05T04:04:16;-5996.03;;;17.74
74449;BMP280;62878;51.026;4.472;2023-01-05T04:06:42;-5991.75;;;17.48
74449;BMP280;62878;51.026;4.472;2023-01-05T04:09:07;-5991.84;;;17.49
74449;BMP280;62878;51.026;4.472;2023-01-05T04:11:32;-5995.97;;;17.73
74449;BMP280;62878;51.026;4.472;2023-01-05T04:13:58;-5995.72;;;17.72
74449;BMP280;62878;51.026;4.472;2023-01-05T04:16:23;-5995.13;;;17.68
74449;BMP280;62878;51.026;4.472;2023-01-05T04:18:49;-5995.03;;;17.68
74449;BMP280;62878;51.026;4.472;2023-01-05T04:21:14;-5992.44;;;17.52
74449;BMP280;62878;51.026;4.472;2023-01-05T04:23:40;-5990.25;;;17.39
74449;BMP280;62878;51.026;4.472;2023-01-05T04:26:05;-5993.59;;;17.59
74449;BMP280;62878;51.026;4.472;2023-01-05T04:28:31;-5992.50;;;17.53
74449;BMP280;62878;51.026;4.472;2023-01-05T04:30:56;-5995.88;;;17.73
74449;BMP280;62878;51.026;4.472;2023-01-05T04:33:23;-5995.88;;;17.73
74449;BMP280;62878;51.026;4.472;2023-01-05T04:35:49;-5991.00;;;17.44
74449;BMP280;62878;51.026;4.472;2023-01-05T04:38:14;-5994.03;;;17.62
74449;BMP280;62878;51.026;4.472;2023-01-05T04:40:40;-5995.03;;;17.68
74449;BMP280;62878;51.026;4.472;2023-01-05T04:43:06;-5995.38;;;17.70
74449;BMP280;62878;51.026;4.472;2023-01-05T04:45:32;-5993.84;;;17.61
74449;BMP280;62878;51.026;4.472;2023-01-05T04:47:58;-5991.50;;;17.47
74449;BMP280;62878;51.026;4.472;2023-01-05T04:50:23;-5995.13;;;17.68
74449;BMP280;62878;51.026;4.472;2023-01-05T04:52:49;-5994.88;;;17.67
74449;BMP280;62878;51.026;4.472;2023-01-05T04:55:14;-5994.78;;;17.66
74449;BMP280;62878;51.026;4.472;2023-01-05T04:57:40;-5994.09;;;17.62
74449;BMP280;62878;51.026;4.472;2023-01-05T05:00:07;-5994.34;;;17.64
74449;BMP280;62878;51.026;4.472;2023-01-05T05:02:33;-5995.28;;;17.69
74449;BMP280;62878;51.026;4.472;2023-01-05T05:04:58;-5993.53;;;17.59
74449;BMP280;62878;51.026;4.472;2023-01-05T05:07:24;-5992.50;;;17.53
74449;BMP280;62878;51.026;4.472;2023-01-05T05:09:50;-5994.34;;;17.64
74449;BMP280;62878;51.026;4.472;2023-01-05T05:12:16;-5994.44;;;17.64
74449;BMP280;62878;51.026;4.472;2023-01-05T05:14:48;-5992.09;;;17.50
74449;BMP280;62878;51.026;4.472;2023-01-05T05:17:14;-5992.69;;;17.54
74449;BMP280;62878;51.026;4.472;2023-01-05T05:19:40;-5990.31;;;17.39
74449;BMP280;62878;51.026;4.472;2023-01-05T05:22:06;-5994.34;;;17.64
74449;BMP280;62878;51.026;4.472;2023-01-05T05:24:32;-5993.53;;;17.59
74449;BMP280;62878;51.026;4.472;2023-01-05T05:26:57;-5994.19;;;17.63
74449;BMP280;62878;51.026;4.472;2023-01-05T05:29:23;-5993.28;;;17.57
74449;BMP280;62878;51.026;4.472;2023-01-05T05:31:49;-5988.91;;;17.31
74449;BMP280;62878;51.026;4.472;2023-01-05T05:34:14;-5993.69;;;17.60
74449;BMP280;62878;51.026;4.472;2023-01-05T05:36:39;-5989.56;;;17.35
74449;BMP280;62878;51.026;4.472;2023-01-05T05:39:04;-5988.56;;;17.29
74449;BMP280;62878;51.026;4.472;2023-01-05T05:41:30;-5990.84;;;17.43
74449;BMP280;62878;51.026;4.472;2023-01-05T05:43:55;-5992.50;;;17.53
74449;BMP280;62878;51.026;4.472;2023-01-05T05:46:27;-5993.53;;;17.59
74449;BMP280;62878;51.026;4.472;2023-01-05T05:48:56;-5992.69;;;17.54
74449;BMP280;62878;51.026;4.472;2023-01-05T05:51:22;-5993.84;;;17.61
74449;BMP280;62878;51.026;4.472;2023-01-05T05:53:48;-5992.84;;;17.55
74449;BMP280;62878;51.026;4.472;2023-01-05T05:56:14;-5993.00;;;17.56
74449;BMP280;62878;51.026;4.472;2023-01-05T05:58:39;-5990.84;;;17.43
74449;BMP280;62878;51.026;4.472;2023-01-05T06:01:05;-5991.84;;;17.49
74449;BMP280;62878;51.026;4.472;2023-01-05T06:03:30;-5990.50;;;17.41
74449;BMP280;62878;51.026;4.472;2023-01-05T06:05:55;-5992.69;;;17.54
74449;BMP280;62878;51.026;4.472;2023-01-05T06:08:21;-5992.44;;;17.52
74449;BMP280;62878;51.026;4.472;2023-01-05T06:10:48;-5992.19;;;17.51
74449;BMP280;62878;51.026;4.472;2023-01-05T06:13:14;-5992.25;;;17.51
74449;BMP280;62878;51.026;4.472;2023-01-05T06:15:40;-5989.81;;;17.36
74449;BMP280;62878;51.026;4.472;2023-01-05T06:18:06;-5990.84;;;17.43
74449;BMP280;62878;51.026;4.472;2023-01-05T06:20:32;-5992.44;;;17.52
74449;BMP280;62878;51.026;4.472;2023-01-05T06:22:57;-5991.75;;;17.48
74449;BMP280;62878;51.026;4.472;2023-01-05T06:25:22;-5988.31;;;17.27
74449;BMP280;62878;51.026;4.472;2023-01-05T06:27:48;-5992.09;;;17.50
74449;BMP280;62878;51.026;4.472;2023-01-05T06:30:13;-5991.75;;;17.48
74449;BMP280;62878;51.026;4.472;2023-01-05T06:32:38;-5990.84;;;17.43
74449;BMP280;62878;51.026;4.472;2023-01-05T06:35:04;-5989.16;;;17.32
74449;BMP280;62878;51.026;4.472;2023-01-05T06:37:31;-5991.66;;;17.48
74449;BMP280;62878;51.026;4.472;2023-01-05T06:39:57;-5992.25;;;17.51
74449;BMP280;62878;51.026;4.472;2023-01-05T06:42:22;-5991.84;;;17.49
74449;BMP280;62878;51.026;4.472;2023-01-05T06:44:47;-5990.25;;;17.39
74449;BMP280;62878;51.026;4.472;2023-01-05T06:47:13;-5990.25;;;17.39
74449;BMP280;62878;51.026;4.472;2023-01-05T06:49:38;-5991.50;;;17.47
74449;BMP280;62878;51.026;4.472;2023-01-05T06:52:03;-5990.06;;;17.38
74449;BMP280;62878;51.026;4.472;2023-01-05T06:54:29;-5989.72;;;17.36
74449;BMP280;62878;51.026;4.472;2023-01-05T06:56:54;-5991.16;;;17.45
74449;BMP280;62878;51.026;4.472;2023-01-05T06:59:20;-5990.84;;;17.43
74449;BMP280;62878;51.026;4.472;2023-01-05T07:01:45;-5988.56;;;17.29
74449;BMP280;62878;51.026;4.472;2023-01-05T07:04:10;-5989.31;;;17.33
74449;BMP280;62878;51.026;4.472;2023-01-05T07:06:35;-5988.81;;;17.30
74449;BMP280;62878;51.026;4.472;2023-01-05T07:09:01;-5990.00;;;17.37
74449;BMP280;62878;51.026;4.472;2023-01-05T07:11:26;-5989.31;;;17.33
74449;BMP280;62878;51.026;4.472;2023-01-05T07:13:51;-5987.47;;;17.22
74449;BMP280;62878;51.026;4.472;2023-01-05T07:16:17;-5991.00;;;17.44
74449;BMP280;62878;51.026;4.472;2023-01-05T07:18:43;-5990.50;;;17.41
74449;BMP280;62878;51.026;4.472;2023-01-05T07:21:09;-5989.56;;;17.35
74449;BMP280;62878;51.026;4.472;2023-01-05T07:23:34;-5990.25;;;17.39
74449;BMP280;62878;51.026;4.472;2023-01-05T07:26:02;-5989.31;;;17.33
74449;BMP280;62878;51.026;4.472;2023-01-05T07:28:28;-5989.16;;;17.32
74449;BMP280;62878;51.026;4.472;2023-01-05T07:30:53;-5989.22;;;17.33
74449;BMP280;62878;51.026;4.472;2023-01-05T07:33:18;-5988.72;;;17.30
74449;BMP280;62878;51.026;4.472;2023-01-05T07:35:44;-5988.13;;;17.26
74449;BMP280;62878;51.026;4.472;2023-01-05T07:38:09;-5989.16;;;17.32
74449;BMP280;62878;51.026;4.472;2023-01-05T07:40:35;-5988.47;;;17.28
74449;BMP280;62878;51.026;4.472;2023-01-05T07:43:00;-5985.28;;;17.09
74449;BMP280;62878;51.026;4.472;2023-01-05T07:45:25;-5986.44;;;17.16
74449;BMP280;62878;51.026;4.472;2023-01-05T07:47:51;-5988.81;;;17.30
74449;BMP280;62878;51.026;4.472;2023-01-05T07:50:16;-5989.41;;;17.34
74449;BMP280;62878;51.026;4.472;2023-01-05T07:52:41;-5988.81;;;17.30
74449;BMP280;62878;51.026;4.472;2023-01-05T07:55:07;-5988.13;;;17.26
74449;BMP280;62878;51.026;4.472;2023-01-05T07:57:33;-5987.97;;;17.25
74449;BMP280;62878;51.026;4.472;2023-01-05T07:59:58;-5986.13;;;17.14
74449;BMP280;62878;51.026;4.472;2023-01-05T08:02:24;-5986.19;;;17.15
74449;BMP280;62878;51.026;4.472;2023-01-05T08:04:51;-5986.97;;;17.19
74449;BMP280;62878;51.026;4.472;2023-01-05T08:07:17;-5987.28;;;17.21
74449;BMP280;62878;51.026;4.472;2023-01-05T08:09:42;-5988.56;;;17.29
74449;BMP280;62878;51.026;4.472;2023-01-05T08:12:27;-5986.28;;;17.15
74449;BMP280;62878;51.026;4.472;2023-01-05T08:14:53;-5986.03;;;17.14
74449;BMP280;62878;51.026;4.472;2023-01-05T08:17:18;-5975.50;;;16.51
74449;BMP280;62878;51.026;4.472;2023-01-05T08:19:43;-5978.28;;;16.67
74449;BMP280;62878;51.026;4.472;2023-01-05T08:22:09;-5979.72;;;16.76
74449;BMP280;62878;51.026;4.472;2023-01-05T08:24:34;-5982.91;;;16.95
74449;BMP280;62878;51.026;4.472;2023-01-05T08:27:01;-5975.69;;;16.52
74449;BMP280;62878;51.026;4.472;2023-01-05T08:29:26;-5982.75;;;16.94
74449;BMP280;62878;51.026;4.472;2023-01-05T08:31:52;-5985.09;;;17.08
74449;BMP280;62878;51.026;4.472;2023-01-05T08:34:17;-5984.44;;;17.04
74449;BMP280;62878;51.026;4.472;2023-01-05T08:36:43;-5982.75;;;16.94
74449;BMP280;62878;51.026;4.472;2023-01-05T08:39:09;-5987.13;;;17.20
74449;BMP280;62878;51.026;4.472;2023-01-05T08:41:36;-5988.38;;;17.28
74449;BMP280;62878;51.026;4.472;2023-01-05T08:44:04;-5988.63;;;17.29
74449;BMP280;62878;51.026;4.472;2023-01-05T08:46:33;-5987.97;;;17.25
74449;BMP280;62878;51.026;4.472;2023-01-05T08:49:01;-5986.97;;;17.19
74449;BMP280;62878;51.026;4.472;2023-01-05T08:51:27;-5989.91;;;17.37
74449;BMP280;62878;51.026;4.472;2023-01-05T08:53:54;-5989.66;;;17.35
74449;BMP280;62878;51.026;4.472;2023-01-05T08:56:20;-5990.31;;;17.39
74449;BMP280;62878;51.026;4.472;2023-01-05T08:58:46;-5989.81;;;17.36
74449;BMP280;62878;51.026;4.472;2023-01-05T09:01:13;-5991.00;;;17.44
74449;BMP280;62878;51.026;4.472;2023-01-05T09:03:39;-5994.03;;;17.62
74449;BMP280;62878;51.026;4.472;2023-01-05T09:06:06;-5990.31;;;17.39
74449;BMP280;62878;51.026;4.472;2023-01-05T09:08:33;-5992.84;;;17.55
74449;BMP280;62878;51.026;4.472;2023-01-05T09:11:27;-5992.84;;;17.55
74449;BMP280;62878;51.026;4.472;2023-01-05T09:13:54;-5991.75;;;17.48
74449;BMP280;62878;51.026;4.472;2023-01-05T09:16:26;-5992.69;;;17.54
74449;BMP280;62878;51.026;4.472;2023-01-05T09:18:52;-5991.34;;;17.46
74449;BMP280;62878;51.026;4.472;2023-01-05T09:21:18;-5992.00;;;17.50
74449;BMP280;62878;51.026;4.472;2023-01-05T09:23:43;-5990.31;;;17.39
74449;BMP280;62878;51.026;4.472;2023-01-05T09:26:11;-5991.25;;;17.45
74449;BMP280;62878;51.026;4.472;2023-01-05T09:28:37;-5991.66;;;17.48
74449;BMP280;62878;51.026;4.472;2023-01-05T09:33:36;-5992.34;;;17.52
74449;BMP280;62878;51.026;4.472;2023-01-05T09:36:02;-5990.16;;;17.38
74449;BMP280;62878;51.026;4.472;2023-01-05T09:38:27;-5990.00;;;17.37
74449;BMP280;62878;51.026;4.472;2023-01-05T09:40:54;-5989.31;;;17.33
74449;BMP280;62878;51.026;4.472;2023-01-05T09:43:26;-5988.97;;;17.31
74449;BMP280;62878;51.026;4.472;2023-01-05T09:45:53;-5992.84;;;17.55
74449;BMP280;62878;51.026;4.472;2023-01-05T09:48:20;-5990.41;;;17.40
74449;BMP280;62878;51.026;4.472;2023-01-05T09:50:47;-5990.25;;;17.39
74449;BMP280;62878;51.026;4.472;2023-01-05T09:53:14;-5992.34;;;17.52
74449;BMP280;62878;51.026;4.472;2023-01-05T09:55:41;-5993.09;;;17.56
74449;BMP280;62878;51.026;4.472;2023-01-05T09:58:16;-5990.41;;;17.40
74449;BMP280;62878;51.026;4.472;2023-01-05T10:00:46;-5989.81;;;17.36
74449;BMP280;62878;51.026;4.472;2023-01-05T10:03:16;-5993.34;;;17.58
74449;BMP280;62878;51.026;4.472;2023-01-05T10:05:44;-5993.53;;;17.59
74449;BMP280;62878;51.026;4.472;2023-01-05T10:08:16;-5995.03;;;17.68
74449;BMP280;62878;51.026;4.472;2023-01-05T10:11:00;-5995.03;;;17.68
74449;BMP280;62878;51.026;4.472;2023-01-05T10:13:56;-5994.88;;;17.67
74449;BMP280;62878;51.026;4.472;2023-01-05T10:16:24;-5993.84;;;17.61
74449;BMP280;62878;51.026;4.472;2023-01-05T10:18:51;-5997.06;;;17.80
74449;BMP280;62878;51.026;4.472;2023-01-05T10:29:16;-5996.22;;;17.75
74449;BMP280;62878;51.026;4.472;2023-01-05T10:32:10;-5997.38;;;17.82
74449;BMP280;62878;51.026;4.472;2023-01-05T10:34:53;-5998.56;;;17.89
74449;BMP280;62878;51.026;4.472;2023-01-05T10:45:31;-5996.81;;;17.78
74449;BMP280;62878;51.026;4.472;2023-01-05T10:47:57;-5995.72;;;17.72
74449;BMP280;62878;51.026;4.472;2023-01-05T10:50:33;-6000.16;;;17.99
74449;BMP280;62878;51.026;4.472;2023-01-05T10:53:06;-5999.75;;;17.96
74449;BMP280;62878;51.026;4.472;2023-01-05T10:55:41;-5999.31;;;17.93
74449;BMP280;62878;51.026;4.472;2023-01-05T10:58:20;-6001.25;;;18.05
74449;BMP280;62878;51.026;4.472;2023-01-05T11:00:45;-6001.16;;;18.05
74449;BMP280;62878;51.026;4.472;2023-01-05T11:03:14;-6002.00;;;18.10
74449;BMP280;62878;51.026;4.472;2023-01-05T11:05:42;-6002.25;;;18.11
74449;BMP280;62878;51.026;4.472;2023-01-05T11:08:21;-6003.78;;;18.20
74449;BMP280;62878;51.026;4.472;2023-01-05T11:11:02;-6002.44;;;18.12
74449;BMP280;62878;51.026;4.472;2023-01-05T11:13:38;-6002.44;;;18.12
74449;BMP280;62878;51.026;4.472;2023-01-05T11:16:24;-6002.09;;;18.10
74449;BMP280;62878;51.026;4.472;2023-01-05T11:18:53;-6001.69;;;18.08
74449;BMP280;62878;51.026;4.472;2023-01-05T11:21:27;-6004.38;;;18.24
74449;BMP280;62878;51.026;4.472;2023-01-05T11:24:32;-6002.09;;;18.10
74449;BMP280;62878;51.026;4.472;2023-01-05T11:27:03;-6003.94;;;18.21
74449;BMP280;62878;51.026;4.472;2023-01-05T11:32:43;-6005.22;;;18.29
74449;BMP280;62878;51.026;4.472;2023-01-05T11:35:35;-6004.38;;;18.24
74449;BMP280;62878;51.026;4.472;2023-01-05T11:38:01;-6003.94;;;18.21
74449;BMP280;62878;51.026;4.472;2023-01-05T11:40:32;-6002.44;;;18.12
74449;BMP280;62878;51.026;4.472;2023-01-05T11:42:59;-6003.53;;;18.19
74449;BMP280;62878;51.026;4.472;2023-01-05T11:45:27;-6004.44;;;18.24
74449;BMP280;62878;51.026;4.472;2023-01-05T11:47:59;-6004.88;;;18.27
74449;BMP280;62878;51.026;4.472;2023-01-05T11:50:47;-6005.03;;;18.28
74449;BMP280;62878;51.026;4.472;2023-01-05T11:53:24;-6005.47;;;18.30
74449;BMP280;62878;51.026;4.472;2023-01-05T11:56:03;-6004.97;;;18.27
74449;BMP280;62878;51.026;4.472;2023-01-05T11:58:42;-6005.47;;;18.30
74449;BMP280;62878;51.026;4.472;2023-01-05T12:04:02;-6005.13;;;18.28
74449;BMP280;62878;51.026;4.472;2023-01-05T12:14:50;-6006.97;;;18.39
74449;BMP280;62878;51.026;4.472;2023-01-05T12:17:28;-6006.06;;;18.34
74449;BMP280;62878;51.026;4.472;2023-01-05T12:20:18;-6007.47;;;18.42
74449;BMP280;62878;51.026;4.472;2023-01-05T12:25:37;-6005.81;;;18.32
74449;BMP280;62878;51.026;4.472;2023-01-05T12:28:25;-6006.22;;;18.35
74449;BMP280;62878;51.026;4.472;2023-01-05T12:33:49;-6008.31;;;18.48
74449;BMP280;62878;51.026;4.472;2023-01-05T12:44:38;-6004.19;;;18.23
74449;BMP280;62878;51.026;4.472;2023-01-05T12:49:50;-6004.38;;;18.24
74449;BMP280;62878;51.026;4.472;2023-01-05T12:52:40;-6003.28;;;18.17
74449;BMP280;62878;51.026;4.472;2023-01-05T12:55:18;-6005.13;;;18.28
74449;BMP280;62878;51.026;4.472;2023-01-05T12:57:50;-6000.91;;;18.03
74449;BMP280;62878;51.026;4.472;2023-01-05T13:00:21;-6004.19;;;18.23
74449;BMP280;62878;51.026;4.472;2023-01-05T13:02:57;-6005.38;;;18.30
74449;BMP280;62878;51.026;4.472;2023-01-05T13:05:56;-6005.47;;;18.30
74449;BMP280;62878;51.026;4.472;2023-01-05T13:08:40;-6006.06;;;18.34
74449;BMP280;62878;51.026;4.472;2023-01-05T13:13:40;-6007.41;;;18.42
74449;BMP280;62878;51.026;4.472;2023-01-05T13:16:20;-6004.69;;;18.26
74449;BMP280;62878;51.026;4.472;2023-01-05T13:19:11;-6005.28;;;18.29
74449;BMP280;62878;51.026;4.472;2023-01-05T13:21:41;-6006.38;;;18.36
74449;BMP280;62878;51.026;4.472;2023-01-05T13:24:11;-6007.31;;;18.41
74449;BMP280;62878;51.026;4.472;2023-01-05T13:26:38;-6007.06;;;18.40
74449;BMP280;62878;51.026;4.472;2023-01-05T13:29:04;-6007.66;;;18.43
74449;BMP280;62878;51.026;4.472;2023-01-05T13:42:53;-6009.50;;;18.55
74449;BMP280;62878;51.026;4.472;2023-01-05T13:51:04;-6005.72;;;18.32
74449;BMP280;62878;51.026;4.472;2023-01-05T13:53:36;-5999.50;;;17.95
74449;BMP280;62878;51.026;4.472;2023-01-05T13:56:14;-6001.25;;;18.05
74449;BMP280;62878;51.026;4.472;2023-01-05T13:58:57;-5998.72;;;17.90
74449;BMP280;62878;51.026;4.472;2023-01-05T14:01:41;-5999.06;;;17.92
74449;BMP280;62878;51.026;4.472;2023-01-05T14:04:28;-6004.63;;;18.25
74449;BMP280;62878;51.026;4.472;2023-01-05T14:06:58;-6003.78;;;18.20
74449;BMP280;62878;51.026;4.472;2023-01-05T14:09:30;-6006.63;;;18.37
74449;BMP280;62878;51.026;4.472;2023-01-05T14:20:48;-5997.91;;;17.85
74449;BMP280;62878;51.026;4.472;2023-01-05T14:25:57;-6000.59;;;18.01
74449;BMP280;62878;51.026;4.472;2023-01-05T14:33:52;-6004.78;;;18.26
74449;BMP280;62878;51.026;4.472;2023-01-05T14:36:40;-6004.63;;;18.25
74449;BMP280;62878;51.026;4.472;2023-01-05T14:42:07;-6004.78;;;18.26
74449;BMP280;62878;51.026;4.472;2023-01-05T14:44:44;-6008.91;;;18.51
74449;BMP280;62878;51.026;4.472;2023-01-05T14:47:11;-6003.94;;;18.21
74449;BMP280;62878;51.026;4.472;2023-01-05T14:49:51;-6007.47;;;18.42
74449;BMP280;62878;51.026;4.472;2023-01-05T14:55:21;-6005.63;;;18.31
74449;BMP280;62878;51.026;4.472;2023-01-05T14:57:52;-6003.69;;;18.20
74449;BMP280;62878;51.026;4.472;2023-01-05T15:03:36;-6003.69;;;18.20
74449;BMP280;62878;51.026;4.472;2023-01-05T15:09:07;-6003.53;;;18.19
74449;BMP280;62878;51.026;4.472;2023-01-05T15:28:25;-5996.63;;;17.77
74449;BMP280;62878;51.026;4.472;2023-01-05T15:35:54;-6001.25;;;18.05
74449;BMP280;62878;51.026;4.472;2023-01-05T15:38:27;-6001.84;;;18.09
74449;BMP280;62878;51.026;4.472;2023-01-05T15:41:13;-6001.44;;;18.06
74449;BMP280;62878;51.026;4.472;2023-01-05T15:43:42;-6000.84;;;18.03
74449;BMP280;62878;51.026;4.472;2023-01-05T15:46:08;-5998.91;;;17.91
74449;BMP280;62878;51.026;4.472;2023-01-05T15:48:43;-5998.31;;;17.87
74449;BMP280;62878;51.026;4.472;2023-01-05T15:51:09;-6000.00;;;17.98
74449;BMP280;62878;51.026;4.472;2023-01-05T15:53:36;-5998.31;;;17.87
74449;BMP280;62878;51.026;4.472;2023-01-05T15:56:20;-5999.00;;;17.92
74449;BMP280;62878;51.026;4.472;2023-01-05T15:58:47;-6001.34;;;18.06
74449;BMP280;62878;51.026;4.472;2023-01-05T16:01:14;-6001.09;;;18.04
74449;BMP280;62878;51.026;4.472;2023-01-05T16:03:42;-6001.16;;;18.05
74449;BMP280;62878;51.026;4.472;2023-01-05T16:06:13;-6000.41;;;18.00
74449;BMP280;62878;51.026;4.472;2023-01-05T16:08:45;-6001.59;;;18.07
74449;BMP280;62878;51.026;4.472;2023-01-05T16:11:13;-5998.66;;;17.89
74449;BMP280;62878;51.026;4.472;2023-01-05T16:13:57;-6006.81;;;18.38
74449;BMP280;62878;51.026;4.472;2023-01-05T16:19:38;-6007.31;;;18.41
74449;BMP280;62878;51.026;4.472;2023-01-05T16:22:19;-6009.00;;;18.52
74449;BMP280;62878;51.026;4.472;2023-01-05T16:27:21;-6007.41;;;18.42
74449;BMP280;62878;51.026;4.472;2023-01-05T16:29:47;-6010.69;;;18.62
74449;BMP280;62878;51.026;4.472;2023-01-05T16:32:34;-6012.34;;;18.72
74449;BMP280;62878;51.026;4.472;2023-01-05T16:35:30;-6012.09;;;18.70
74449;BMP280;62878;51.026;4.472;2023-01-05T16:45:45;-6013.03;;;18.76
74449;BMP280;62878;51.026;4.472;2023-01-05T16:53:32;-6014.53;;;18.85
74449;BMP280;62878;51.026;4.472;2023-01-05T16:55:59;-6012.34;;;18.72
74449;BMP280;62878;51.026;4.472;2023-01-05T17:03:33;-6018.75;;;19.10
74449;BMP280;62878;51.026;4.472;2023-01-05T17:05:59;-6019.00;;;19.12